Time;durP1;ratioP1;P1;durP2;ratioP2;P2;SDS_P1;SDS_P2;PMS_P1;PMS_P2;Temp;Humidity;BMP_temperature;BMP_pressure;BME280_temperature;BME280_humidity;BME280_pressure;Samples;Min_cycle;Max_cycle;Signal;HPM_P1;HPM_P2
2023/03/18 00:00:10;;;;;;;5.80;2.03;;;;;;;;;;5116950;28;20198;-92
2023/03/18 00:02:39;;;;;;;4.03;2.20;;;;;;;;;;5116738;28;20182;-92
2023/03/18 00:05:07;;;;;;;3.80;2.23;;;;;;;;;;5117181;28;20604;-92
2023/03/18 00:07:34;;;;;;;4.97;2.10;;;;;;;;;;5116938;28;20186;-93
2023/03/18 00:10:02;;;;;;;4.60;2.00;;;;;;;;;;5117002;28;20190;-93
2023/03/18 00:12:30;;;;;;;4.43;2.27;;;;;;;;;;5117198;28;20543;-93
2023/03/18 00:14:57;;;;;;;5.10;2.10;;;;;;;;;;5115643;28;20201;-93
2023/03/18 00:17:24;;;;;;;3.57;2.03;;;;;;;;;;5116915;28;20254;-92
2023/03/18 00:19:53;;;;;;;4.70;2.10;;;;;;;;;;5116548;28;20212;-94
2023/03/18 00:22:21;;;;;;;5.40;2.70;;;;;;;;;;5117236;28;20212;-92
2023/03/18 00:24:49;;;;;;;4.57;2.40;;;;;;;;;;5116769;28;20277;-93
2023/03/18 00:27:16;;;;;;;5.03;2.40;;;;;;;;;;5116426;28;20202;-92
2023/03/18 00:29:44;;;;;;;7.20;2.63;;;;;;;;;;5116667;28;20224;-94
2023/03/18 00:32:12;;;;;;;7.00;2.67;;;;;;;;;;5115821;28;20279;-93
2023/03/18 00:34:39;;;;;;;3.63;2.47;;;;;;;;;;5116339;28;20225;-93
2023/03/18 00:37:09;;;;;;;3.63;2.30;;;;;;;;;;5115938;28;20647;-93
2023/03/18 00:39:36;;;;;;;3.90;2.47;;;;;;;;;;5116714;28;20620;-93
2023/03/18 00:42:09;;;;;;;4.40;2.27;;;;;;;;;;5116461;28;20221;-93
2023/03/18 00:44:37;;;;;;;4.43;2.20;;;;;;;;;;5116324;28;20222;-93
2023/03/18 00:47:04;;;;;;;3.83;2.40;;;;;;;;;;5114897;28;20240;-93
2023/03/18 00:49:32;;;;;;;4.13;2.40;;;;;;;;;;5114910;28;20198;-92
2023/03/18 00:51:59;;;;;;;3.97;2.43;;;;;;;;;;5114971;28;20266;-92
2023/03/18 00:54:28;;;;;;;5.23;2.40;;;;;;;;;;5116068;28;20634;-92
2023/03/18 00:56:56;;;;;;;4.70;2.30;;;;;;;;;;5115922;28;20217;-93
2023/03/18 00:59:24;;;;;;;6.27;2.33;;;;;;;;;;5115742;28;20190;-92
2023/03/18 01:01:52;;;;;;;2.83;1.70;;;;;;;;;;5114791;28;20276;-92
2023/03/18 01:04:20;;;;;;;4.77;2.07;;;;;;;;;;5115765;28;20265;-90
2023/03/18 01:06:47;;;;;;;3.47;1.90;;;;;;;;;;5115068;28;20243;-91
2023/03/18 01:09:15;;;;;;;3.30;1.90;;;;;;;;;;5115802;28;20213;-91
2023/03/18 01:11:44;;;;;;;5.40;2.30;;;;;;;;;;5116118;27;20202;-92
2023/03/18 01:14:11;;;;;;;3.70;1.90;;;;;;;;;;5094849;28;20560;-90
2023/03/18 01:16:38;;;;;;;4.63;2.13;;;;;;;;;;5096466;28;20199;-92
2023/03/18 01:19:05;;;;;;;3.00;2.30;;;;;;;;;;5097290;28;20271;-91
2023/03/18 01:21:33;;;;;;;4.77;1.90;;;;;;;;;;5097027;28;20220;-92
2023/03/18 01:24:00;;;;;;;4.37;2.33;;;;;;;;;;5097370;28;20558;-91
2023/03/18 01:26:28;;;;;;;3.40;2.10;;;;;;;;;;5096530;28;20194;-91
2023/03/18 01:28:57;;;;;;;3.53;1.83;;;;;;;;;;5096765;28;20186;-91
2023/03/18 01:31:24;;;;;;;3.93;1.93;;;;;;;;;;5101274;28;20226;-90
2023/03/18 01:33:52;;;;;;;5.37;1.97;;;;;;;;;;5115260;28;20185;-92
2023/03/18 01:36:19;;;;;;;4.03;2.07;;;;;;;;;;5120295;28;20202;-92
2023/03/18 01:38:47;;;;;;;3.97;1.90;;;;;;;;;;5122507;28;20715;-92
2023/03/18 01:41:16;;;;;;;4.73;1.90;;;;;;;;;;5115793;28;20201;-92
2023/03/18 01:43:43;;;;;;;3.93;1.70;;;;;;;;;;5115015;28;20301;-91
2023/03/18 01:46:31;;;;;;;5.13;2.00;;;;;;;;;;5115063;28;20294;-91
2023/03/18 01:48:58;;;;;;;3.47;2.00;;;;;;;;;;5115030;28;20198;-91
2023/03/18 01:51:28;;;;;;;4.70;1.80;;;;;;;;;;5114597;28;20242;-91
2023/03/18 01:53:56;;;;;;;2.93;1.70;;;;;;;;;;5114709;28;20189;-90
2023/03/18 01:56:24;;;;;;;4.70;1.90;;;;;;;;;;5114821;28;20236;-93
2023/03/18 01:58:56;;;;;;;3.87;1.90;;;;;;;;;;5115121;28;20185;-92
2023/03/18 02:01:26;;;;;;;4.27;2.07;;;;;;;;;;5114524;28;20201;-91
2023/03/18 02:03:55;;;;;;;3.20;1.80;;;;;;;;;;5114897;28;20225;-90
2023/03/18 02:06:23;;;;;;;4.00;1.73;;;;;;;;;;5114549;28;20216;-92
2023/03/18 02:08:51;;;;;;;3.47;1.40;;;;;;;;;;5114576;28;20291;-90
2023/03/18 02:11:18;;;;;;;4.47;1.67;;;;;;;;;;5114723;28;20239;-90
2023/03/18 02:13:47;;;;;;;4.10;1.67;;;;;;;;;;5117926;28;20229;-92
2023/03/18 02:16:16;;;;;;;4.17;1.73;;;;;;;;;;5118518;28;20193;-91
2023/03/18 02:18:45;;;;;;;2.17;1.33;;;;;;;;;;5118953;28;20245;-91
2023/03/18 02:21:32;;;;;;;3.93;1.60;;;;;;;;;;5118495;28;20208;-90
2023/03/18 02:24:05;;;;;;;4.40;1.73;;;;;;;;;;5118762;27;20680;-91
2023/03/18 02:26:37;;;;;;;8.93;2.20;;;;;;;;;;5118702;28;20197;-91
2023/03/18 02:29:06;;;;;;;7.67;1.97;;;;;;;;;;5117763;28;20239;-91
2023/03/18 02:31:35;;;;;;;4.40;1.50;;;;;;;;;;5118900;28;20612;-90
2023/03/18 02:34:03;;;;;;;4.63;1.70;;;;;;;;;;5118816;28;20538;-91
2023/03/18 02:36:30;;;;;;;3.20;1.60;;;;;;;;;;5118525;28;20677;-90
2023/03/18 02:38:59;;;;;;;5.47;1.63;;;;;;;;;;5118218;28;20205;-91
2023/03/18 02:41:28;;;;;;;3.90;1.60;;;;;;;;;;5118379;28;20211;-90
2023/03/18 02:43:55;;;;;;;4.20;1.43;;;;;;;;;;5118602;28;20259;-90
2023/03/18 02:46:32;;;;;;;7.10;1.40;;;;;;;;;;5118078;28;20264;-91
2023/03/18 02:49:01;;;;;;;5.83;1.40;;;;;;;;;;5118295;28;20198;-90
2023/03/18 02:51:28;;;;;;;4.97;1.53;;;;;;;;;;5118619;28;20240;-91
2023/03/18 02:53:57;;;;;;;4.00;1.50;;;;;;;;;;5119889;28;20307;-90
2023/03/18 02:56:25;;;;;;;6.17;1.30;;;;;;;;;;5119989;28;20255;-91
2023/03/18 02:58:52;;;;;;;3.50;1.43;;;;;;;;;;5118934;27;20208;-91
2023/03/18 03:01:21;;;;;;;5.10;1.43;;;;;;;;;;5119415;28;20208;-91
2023/03/18 03:03:50;;;;;;;7.30;1.40;;;;;;;;;;5118986;28;20705;-91
2023/03/18 03:06:17;;;;;;;5.23;1.33;;;;;;;;;;5118033;28;20611;-91
2023/03/18 03:08:45;;;;;;;7.73;1.70;;;;;;;;;;5117787;28;20192;-92
2023/03/18 03:11:13;;;;;;;9.33;1.37;;;;;;;;;;5117884;28;20231;-89
2023/03/18 03:13:40;;;;;;;5.73;1.30;;;;;;;;;;5101054;28;20651;-90
2023/03/18 03:16:09;;;;;;;7.17;1.50;;;;;;;;;;5097356;28;20221;-90
2023/03/18 03:18:36;;;;;;;5.30;1.60;;;;;;;;;;5097583;28;20679;-89
2023/03/18 03:21:06;;;;;;;4.50;1.40;;;;;;;;;;5110118;28;20241;-91
2023/03/18 03:23:33;;;;;;;6.47;1.30;;;;;;;;;;5116976;28;20193;-91
2023/03/18 03:26:01;;;;;;;7.60;1.50;;;;;;;;;;5117011;28;20228;-91
2023/03/18 03:28:29;;;;;;;10.27;1.37;;;;;;;;;;5118184;28;20220;-91
2023/03/18 03:30:57;;;;;;;7.60;1.57;;;;;;;;;;5117931;28;20201;-91
2023/03/18 03:33:24;;;;;;;9.70;1.43;;;;;;;;;;5117392;28;20197;-92
2023/03/18 03:35:51;;;;;;;5.53;1.50;;;;;;;;;;5117338;28;20232;-91
2023/03/18 03:38:21;;;;;;;6.53;1.57;;;;;;;;;;5118127;28;20270;-92
2023/03/18 03:40:49;;;;;;;5.13;1.30;;;;;;;;;;5117750;28;20200;-92
2023/03/18 03:43:17;;;;;;;10.17;2.00;;;;;;;;;;5117440;28;20228;-92
2023/03/18 03:45:45;;;;;;;7.43;1.83;;;;;;;;;;5116799;28;20244;-91
2023/03/18 03:48:13;;;;;;;10.10;1.40;;;;;;;;;;5100137;28;20285;-93
2023/03/18 03:50:40;;;;;;;9.43;1.80;;;;;;;;;;5096847;28;20191;-92
2023/03/18 03:53:08;;;;;;;7.57;1.40;;;;;;;;;;5096822;28;20655;-91
2023/03/18 03:55:37;;;;;;;5.77;1.33;;;;;;;;;;5096989;28;20194;-92
2023/03/18 03:58:04;;;;;;;7.50;1.80;;;;;;;;;;5095649;28;20282;-93
2023/03/18 04:00:31;;;;;;;9.07;1.30;;;;;;;;;;5096495;28;20758;-91
2023/03/18 04:02:59;;;;;;;10.10;1.60;;;;;;;;;;5096761;28;20204;-92
2023/03/18 04:05:26;;;;;;;6.97;1.27;;;;;;;;;;5111426;28;20307;-94
2023/03/18 04:07:54;;;;;;;9.20;1.60;;;;;;;;;;5117182;28;20194;-92
2023/03/18 04:10:22;;;;;;;7.20;1.60;;;;;;;;;;5116919;28;20194;-91
2023/03/18 04:12:52;;;;;;;11.33;2.00;;;;;;;;;;5118326;28;20208;-91
2023/03/18 04:15:20;;;;;;;11.87;1.67;;;;;;;;;;5118535;27;20297;-94
2023/03/18 04:17:53;;;;;;;7.73;1.37;;;;;;;;;;5118609;28;20201;-93
2023/03/18 04:20:21;;;;;;;6.40;1.37;;;;;;;;;;5116593;28;20259;-94
2023/03/18 04:22:48;;;;;;;8.20;1.53;;;;;;;;;;5109115;27;20248;-91
2023/03/18 04:25:16;;;;;;;6.77;1.40;;;;;;;;;;5096493;28;20257;-93
2023/03/18 04:27:43;;;;;;;10.57;1.47;;;;;;;;;;5096155;28;20218;-92
2023/03/18 04:30:13;;;;;;;9.07;1.70;;;;;;;;;;5096575;28;20198;-91
2023/03/18 04:32:40;;;;;;;8.93;1.47;;;;;;;;;;5096516;28;20282;-91
2023/03/18 04:35:09;;;;;;;10.03;1.90;;;;;;;;;;5096017;28;20625;-92
2023/03/18 04:37:37;;;;;;;5.83;1.27;;;;;;;;;;5096739;28;20202;-91
2023/03/18 04:40:05;;;;;;;5.80;1.23;;;;;;;;;;5111827;28;20193;-91
2023/03/18 04:42:33;;;;;;;5.17;1.10;;;;;;;;;;5117651;28;20857;-92
2023/03/18 04:45:00;;;;;;;4.40;1.07;;;;;;;;;;5135043;28;20239;-93
2023/03/18 04:47:30;;;;;;;5.77;1.20;;;;;;;;;;5116922;28;20233;-93
2023/03/18 04:49:57;;;;;;;6.27;1.20;;;;;;;;;;5127191;28;20582;-92
2023/03/18 04:52:25;;;;;;;6.47;1.20;;;;;;;;;;5135001;28;20193;-93
2023/03/18 04:54:52;;;;;;;4.47;1.10;;;;;;;;;;5123783;28;20205;-92
2023/03/18 04:57:19;;;;;;;4.80;1.30;;;;;;;;;;5116097;28;20211;-93
2023/03/18 04:59:46;;;;;;;6.23;1.27;;;;;;;;;;5137201;28;20190;-91
2023/03/18 05:02:14;;;;;;;6.43;1.33;;;;;;;;;;5135556;28;20192;-92
2023/03/18 05:04:43;;;;;;;5.13;1.40;;;;;;;;;;5131266;28;20221;-92
2023/03/18 05:07:14;;;;;;;6.60;1.17;;;;;;;;;;5135286;28;20197;-93
2023/03/18 05:09:42;;;;;;;3.83;1.00;;;;;;;;;;5135143;28;20189;-94
2023/03/18 05:12:13;;;;;;;7.17;1.13;;;;;;;;;;5118979;28;20284;-94
2023/03/18 05:14:41;;;;;;;5.87;1.43;;;;;;;;;;5118621;28;20201;-92
2023/03/18 05:17:14;;;;;;;5.50;1.17;;;;;;;;;;5118627;28;20192;-93
2023/03/18 05:19:43;;;;;;;4.20;1.40;;;;;;;;;;5120474;28;20658;-92
2023/03/18 05:22:10;;;;;;;5.33;1.20;;;;;;;;;;5120165;28;20213;-93
2023/03/18 05:24:38;;;;;;;5.63;1.43;;;;;;;;;;5117656;28;20248;-92
2023/03/18 05:27:05;;;;;;;5.67;1.40;;;;;;;;;;5118028;28;20628;-92
2023/03/18 05:29:32;;;;;;;5.03;1.17;;;;;;;;;;5116485;28;20197;-92
2023/03/18 05:31:59;;;;;;;4.23;1.50;;;;;;;;;;5120304;28;20217;-93
2023/03/18 05:34:27;;;;;;;4.17;1.73;;;;;;;;;;5121862;28;20225;-92
2023/03/18 05:36:56;;;;;;;3.80;1.10;;;;;;;;;;5117614;28;20193;-94
2023/03/18 05:39:23;;;;;;;5.77;1.40;;;;;;;;;;5116539;28;20638;-94
2023/03/18 05:41:51;;;;;;;3.53;1.20;;;;;;;;;;5116440;28;20217;-94
2023/03/18 05:44:18;;;;;;;2.47;0.93;;;;;;;;;;5132599;28;20173;-90
2023/03/18 05:46:46;;;;;;;2.60;0.90;;;;;;;;;;5139094;28;20214;-93
2023/03/18 05:49:13;;;;;;;5.93;1.27;;;;;;;;;;5128800;28;20198;-94
2023/03/18 05:51:40;;;;;;;3.47;0.70;;;;;;;;;;5119201;28;20239;-94
2023/03/18 05:54:09;;;;;;;3.80;0.70;;;;;;;;;;5115905;28;20215;-93
2023/03/18 05:56:36;;;;;;;4.20;0.80;;;;;;;;;;5117030;28;20216;-95
2023/03/18 05:59:04;;;;;;;4.93;1.00;;;;;;;;;;5121932;28;20198;-94
2023/03/18 06:01:32;;;;;;;5.27;0.90;;;;;;;;;;5118658;28;20618;-93
2023/03/18 06:04:00;;;;;;;5.10;0.97;;;;;;;;;;5119449;28;20229;-93
2023/03/18 06:06:28;;;;;;;3.60;1.20;;;;;;;;;;5119200;28;20562;-93
2023/03/18 06:08:55;;;;;;;3.03;0.97;;;;;;;;;;5120466;28;20198;-93
2023/03/18 06:11:24;;;;;;;3.70;1.00;;;;;;;;;;5120281;28;20189;-94
2023/03/18 06:13:52;;;;;;;3.47;1.00;;;;;;;;;;5115214;28;20232;-92
2023/03/18 06:16:19;;;;;;;3.47;0.97;;;;;;;;;;5115268;28;20197;-92
2023/03/18 06:18:46;;;;;;;2.53;0.83;;;;;;;;;;5115525;28;20224;-93
2023/03/18 06:21:14;;;;;;;6.63;1.50;;;;;;;;;;5115463;28;20225;-92
2023/03/18 06:23:41;;;;;;;3.00;1.00;;;;;;;;;;5115639;28;20198;-92
2023/03/18 06:26:09;;;;;;;3.83;1.30;;;;;;;;;;5114978;28;20229;-91
2023/03/18 06:28:38;;;;;;;3.13;1.07;;;;;;;;;;5114972;28;20198;-92
2023/03/18 06:31:06;;;;;;;2.93;1.00;;;;;;;;;;5115198;28;20190;-93
2023/03/18 06:33:33;;;;;;;2.30;1.07;;;;;;;;;;5114837;28;20229;-92
2023/03/18 06:36:01;;;;;;;3.13;1.10;;;;;;;;;;5115724;28;20232;-91
2023/03/18 06:38:28;;;;;;;4.53;1.27;;;;;;;;;;5115007;28;20219;-92
2023/03/18 06:40:56;;;;;;;3.50;2.40;;;;;;;;;;5115141;28;20292;-92
2023/03/18 06:43:23;;;;;;;5.10;2.23;;;;;;;;;;5115073;28;20221;-93
2023/03/18 06:45:52;;;;;;;6.93;2.30;;;;;;;;;;5115379;28;20269;-92
2023/03/18 06:48:19;;;;;;;6.27;1.60;;;;;;;;;;5115195;28;20198;-91
2023/03/18 06:50:46;;;;;;;6.37;2.10;;;;;;;;;;5115181;28;20235;-93
2023/03/18 06:53:14;;;;;;;7.40;2.10;;;;;;;;;;5114725;28;20197;-92
2023/03/18 06:55:42;;;;;;;7.53;1.60;;;;;;;;;;5115345;28;20310;-93
2023/03/18 06:58:09;;;;;;;4.57;1.50;;;;;;;;;;5115102;28;20219;-93
2023/03/18 07:00:36;;;;;;;3.10;1.20;;;;;;;;;;5118395;28;20228;-92
2023/03/18 07:03:05;;;;;;;3.40;1.20;;;;;;;;;;5118302;28;20213;-93
2023/03/18 07:05:32;;;;;;;5.07;1.53;;;;;;;;;;5117110;28;20669;-88
2023/03/18 07:08:00;;;;;;;4.67;1.47;;;;;;;;;;5117313;28;20197;-92
2023/03/18 07:10:28;;;;;;;4.03;1.40;;;;;;;;;;5117641;28;20225;-93
2023/03/18 07:12:56;;;;;;;2.97;1.30;;;;;;;;;;5117541;28;20208;-90
2023/03/18 07:15:25;;;;;;;5.10;1.40;;;;;;;;;;5117066;28;20209;-90
2023/03/18 07:17:52;;;;;;;4.60;1.73;;;;;;;;;;5117850;28;20198;-89
2023/03/18 07:20:22;;;;;;;4.03;1.67;;;;;;;;;;5116660;28;20292;-89
2023/03/18 07:22:51;;;;;;;4.23;1.40;;;;;;;;;;5117428;28;20193;-89
2023/03/18 07:25:18;;;;;;;4.97;1.50;;;;;;;;;;5117042;28;20229;-88
2023/03/18 07:27:45;;;;;;;4.27;1.50;;;;;;;;;;5117009;28;20209;-88
2023/03/18 07:30:13;;;;;;;3.13;1.30;;;;;;;;;;5117337;28;20232;-90
2023/03/18 07:32:40;;;;;;;4.47;1.30;;;;;;;;;;5117440;28;20194;-90
2023/03/18 07:35:09;;;;;;;5.13;1.50;;;;;;;;;;5116420;28;20193;-89
2023/03/18 07:37:39;;;;;;;5.13;1.13;;;;;;;;;;5116840;28;20194;-90
2023/03/18 07:40:07;;;;;;;4.07;1.27;;;;;;;;;;5116651;28;20192;-86
2023/03/18 07:42:34;;;;;;;4.47;1.10;;;;;;;;;;5116837;28;20200;-89
2023/03/18 07:45:01;;;;;;;3.90;1.30;;;;;;;;;;5116889;28;20200;-88
2023/03/18 07:47:29;;;;;;;3.60;1.20;;;;;;;;;;5116631;28;20722;-91
2023/03/18 07:49:56;;;;;;;3.50;1.20;;;;;;;;;;5116692;28;20221;-91
2023/03/18 07:52:24;;;;;;;3.33;1.40;;;;;;;;;;5117322;28;20217;-91
2023/03/18 07:54:53;;;;;;;3.43;1.10;;;;;;;;;;5116091;28;20352;-91
2023/03/18 07:57:20;;;;;;;3.23;1.40;;;;;;;;;;5115552;28;20893;-89
2023/03/18 07:59:48;;;;;;;2.87;1.00;;;;;;;;;;5116369;28;20217;-89
2023/03/18 08:02:15;;;;;;;3.10;1.10;;;;;;;;;;5115797;28;20213;-89
2023/03/18 08:04:45;;;;;;;4.57;1.37;;;;;;;;;;5115344;28;20202;-87
2023/03/18 08:07:13;;;;;;;5.37;1.37;;;;;;;;;;5116020;28;20264;-88
2023/03/18 08:09:40;;;;;;;3.33;1.20;;;;;;;;;;5115124;28;20181;-87
2023/03/18 08:12:09;;;;;;;5.43;1.43;;;;;;;;;;5113540;28;20194;-86
2023/03/18 08:14:37;;;;;;;3.77;1.30;;;;;;;;;;5119411;27;20224;-85
2023/03/18 08:17:04;;;;;;;4.60;1.20;;;;;;;;;;5122373;27;20233;-85
2023/03/18 08:19:31;;;;;;;3.00;1.20;;;;;;;;;;5118953;27;20212;-85
2023/03/18 08:21:58;;;;;;;4.17;1.30;;;;;;;;;;5124568;27;20243;-85
2023/03/18 08:24:26;;;;;;;5.07;1.50;;;;;;;;;;5133760;27;20657;-84
2023/03/18 08:26:53;;;;;;;4.73;1.50;;;;;;;;;;5134385;27;20220;-87
2023/03/18 08:29:22;;;;;;;5.17;1.10;;;;;;;;;;5126738;27;20182;-90
2023/03/18 08:31:50;;;;;;;3.17;1.37;;;;;;;;;;5115701;27;20197;-87
2023/03/18 08:34:17;;;;;;;4.30;1.27;;;;;;;;;;5135662;27;20192;-86
2023/03/18 08:36:45;;;;;;;6.97;1.63;;;;;;;;;;5138236;27;20193;-87
2023/03/18 08:39:13;;;;;;;4.80;1.60;;;;;;;;;;5134942;27;20223;-86
2023/03/18 08:41:40;;;;;;;4.43;1.80;;;;;;;;;;5134916;27;20292;-86
2023/03/18 08:44:09;;;;;;;5.93;1.50;;;;;;;;;;5134126;27;20716;-86
2023/03/18 08:46:38;;;;;;;4.57;1.03;;;;;;;;;;5133843;27;20229;-86
2023/03/18 08:49:05;;;;;;;5.37;1.60;;;;;;;;;;5133857;27;20285;-86
2023/03/18 08:51:33;;;;;;;7.53;1.50;;;;;;;;;;5134506;27;20201;-86
2023/03/18 08:54:00;;;;;;;2.83;1.00;;;;;;;;;;5134669;27;20224;-88
2023/03/18 08:56:27;;;;;;;6.13;1.23;;;;;;;;;;5134023;27;20220;-86
2023/03/18 08:58:55;;;;;;;4.87;1.37;;;;;;;;;;5133925;27;20220;-87
2023/03/18 09:01:22;;;;;;;6.67;1.47;;;;;;;;;;5134059;27;20225;-87
2023/03/18 09:03:51;;;;;;;3.33;1.10;;;;;;;;;;5134288;27;20661;-86
2023/03/18 09:06:19;;;;;;;6.70;1.30;;;;;;;;;;5134668;27;20297;-87
2023/03/18 09:08:47;;;;;;;5.43;1.40;;;;;;;;;;5134449;27;20197;-88
2023/03/18 09:11:15;;;;;;;3.90;1.27;;;;;;;;;;5133451;27;20650;-87
2023/03/18 09:13:42;;;;;;;4.47;0.90;;;;;;;;;;5113481;27;20203;-86
2023/03/18 09:16:09;;;;;;;3.73;0.70;;;;;;;;;;5113402;28;20261;-87
2023/03/18 09:18:36;;;;;;;3.03;1.00;;;;;;;;;;5113390;28;20204;-85
2023/03/18 09:21:05;;;;;;;3.47;0.80;;;;;;;;;;5113227;28;20643;-87
2023/03/18 09:23:33;;;;;;;3.73;0.90;;;;;;;;;;5112177;28;20242;-88
2023/03/18 09:26:02;;;;;;;4.47;0.90;;;;;;;;;;5112792;28;20222;-86
2023/03/18 09:28:29;;;;;;;3.97;0.73;;;;;;;;;;5112824;28;20688;-85
2023/03/18 09:30:57;;;;;;;3.37;1.03;;;;;;;;;;5112761;28;20429;-86
2023/03/18 09:33:25;;;;;;;4.27;1.30;;;;;;;;;;5112883;28;20232;-87
2023/03/18 09:35:52;;;;;;;3.87;0.97;;;;;;;;;;5112902;28;20233;-87
2023/03/18 09:38:21;;;;;;;4.33;0.90;;;;;;;;;;5112697;28;20225;-84
2023/03/18 09:40:52;;;;;;;4.40;1.23;;;;;;;;;;5113325;28;20197;-86
2023/03/18 09:43:37;;;;;;;4.60;0.90;;;;;;;;;;5113260;28;20284;-87
2023/03/18 09:46:08;;;;;;;5.10;1.20;;;;;;;;;;5112734;28;20261;-87
2023/03/18 09:48:49;;;;;;;5.10;1.37;;;;;;;;;;5113348;28;20201;-88
2023/03/18 09:51:25;;;;;;;4.77;0.77;;;;;;;;;;5113376;28;20246;-89
2023/03/18 09:53:56;;;;;;;3.23;0.90;;;;;;;;;;5112929;28;20198;-86
2023/03/18 09:56:27;;;;;;;2.63;0.83;;;;;;;;;;5113345;28;20194;-88
2023/03/18 09:58:56;;;;;;;3.70;1.10;;;;;;;;;;5113153;28;20198;-88
2023/03/18 10:01:25;;;;;;;4.03;1.30;;;;;;;;;;5112769;28;20568;-88
2023/03/18 10:03:56;;;;;;;2.33;0.83;;;;;;;;;;5113374;28;20201;-88
2023/03/18 10:06:24;;;;;;;3.13;0.70;;;;;;;;;;5123204;28;20260;-88
2023/03/18 10:08:59;;;;;;;2.07;0.80;;;;;;;;;;5133787;27;20280;-88
2023/03/18 10:11:30;;;;;;;2.13;0.73;;;;;;;;;;5116114;27;20284;-88
2023/03/18 10:14:16;;;;;;;4.77;0.90;;;;;;;;;;5114949;28;20232;-86
2023/03/18 10:16:49;;;;;;;2.50;0.70;;;;;;;;;;5115027;28;20194;-88
2023/03/18 10:19:16;;;;;;;2.83;0.80;;;;;;;;;;5113904;28;20198;-88
2023/03/18 10:21:48;;;;;;;2.67;0.90;;;;;;;;;;5114077;28;20281;-89
2023/03/18 10:24:25;;;;;;;2.50;0.80;;;;;;;;;;5113932;28;20219;-87
2023/03/18 10:26:56;;;;;;;2.97;0.83;;;;;;;;;;5112593;28;20220;-84
2023/03/18 10:29:30;;;;;;;2.90;0.83;;;;;;;;;;5117187;28;20197;-85
2023/03/18 10:32:03;;;;;;;2.43;0.60;;;;;;;;;;5112389;28;20194;-88
2023/03/18 10:34:34;;;;;;;1.73;0.73;;;;;;;;;;5115117;28;20224;-87
2023/03/18 10:37:06;;;;;;;2.10;0.90;;;;;;;;;;5116767;28;20222;-88
2023/03/18 10:39:35;;;;;;;3.70;0.70;;;;;;;;;;5116774;27;20233;-87
2023/03/18 10:42:11;;;;;;;3.33;0.67;;;;;;;;;;5116126;28;20229;-88
2023/03/18 10:44:42;;;;;;;2.37;0.70;;;;;;;;;;5116162;28;20242;-87
2023/03/18 10:47:14;;;;;;;3.50;0.80;;;;;;;;;;5106908;28;20602;-87
2023/03/18 10:49:43;;;;;;;2.17;0.73;;;;;;;;;;5117279;28;20567;-86
2023/03/18 10:52:15;;;;;;;2.27;1.00;;;;;;;;;;5102554;27;20241;-87
2023/03/18 10:54:49;;;;;;;2.80;0.80;;;;;;;;;;5100275;28;20575;-84
2023/03/18 10:57:17;;;;;;;3.00;1.30;;;;;;;;;;5112555;27;20573;-87
2023/03/18 10:59:44;;;;;;;4.03;0.90;;;;;;;;;;5137861;27;20221;-87
2023/03/18 11:02:15;;;;;;;3.07;1.00;;;;;;;;;;5138337;27;20665;-87
2023/03/18 11:04:47;;;;;;;3.78;1.08;;;;;;;;;;5117363;27;20221;-88
2023/03/18 11:07:17;;;;;;;4.30;0.82;;;;;;;;;;5116022;28;20317;-87
2023/03/18 11:09:46;;;;;;;3.08;1.20;;;;;;;;;;5118344;28;20202;-88
2023/03/18 11:12:17;;;;;;;4.75;1.23;;;;;;;;;;5115902;28;20213;-87
2023/03/18 11:14:47;;;;;;;3.95;0.95;;;;;;;;;;5116705;27;20250;-88
2023/03/18 11:17:20;;;;;;;5.50;1.30;;;;;;;;;;5116154;27;20654;-87
2023/03/18 11:19:48;;;;;;;4.32;1.30;;;;;;;;;;5117030;28;20252;-86
2023/03/18 11:22:21;;;;;;;7.32;1.58;;;;;;;;;;5118095;28;20198;-85
2023/03/18 11:25:01;;;;;;;3.42;1.10;;;;;;;;;;5110986;28;20202;-88
2023/03/18 11:27:30;;;;;;;3.92;1.30;;;;;;;;;;5115222;28;20294;-86
2023/03/18 11:29:59;;;;;;;6.53;1.73;;;;;;;;;;5118240;28;20559;-84
2023/03/18 11:32:28;;;;;;;5.07;1.23;;;;;;;;;;5115959;28;20198;-86
2023/03/18 11:34:57;;;;;;;3.88;1.30;;;;;;;;;;5110312;28;20202;-88
2023/03/18 11:37:27;;;;;;;5.38;1.17;;;;;;;;;;5115484;28;20681;-87
2023/03/18 11:40:06;;;;;;;2.97;1.00;;;;;;;;;;5116359;28;20198;-85
2023/03/18 11:42:34;;;;;;;3.88;1.00;;;;;;;;;;5106145;28;20294;-87
2023/03/18 11:45:04;;;;;;;3.42;1.17;;;;;;;;;;5114415;28;20311;-88
2023/03/18 11:47:33;;;;;;;5.10;1.70;;;;;;;;;;5110504;28;20226;-86
2023/03/18 11:50:02;;;;;;;4.80;1.13;;;;;;;;;;5112376;28;20201;-88
2023/03/18 11:52:32;;;;;;;4.78;1.35;;;;;;;;;;5115637;27;20265;-87
2023/03/18 11:55:06;;;;;;;7.20;1.58;;;;;;;;;;5129944;27;20197;-83
2023/03/18 11:57:40;;;;;;;4.97;2.03;;;;;;;;;;5115083;28;20249;-83
2023/03/18 12:00:24;;;;;;;8.32;2.72;;;;;;;;;;5093967;28;20690;-86
2023/03/18 12:03:09;;;;;;;7.45;2.50;;;;;;;;;;5101460;28;20205;-86
2023/03/18 12:06:00;;;;;;;4.40;1.65;;;;;;;;;;5118618;27;20202;-90
2023/03/18 12:08:32;;;;;;;5.85;1.50;;;;;;;;;;5098843;28;20761;-91
2023/03/18 12:11:06;;;;;;;6.90;1.45;;;;;;;;;;5118188;28;20202;-91
2023/03/18 12:13:39;;;;;;;5.57;1.42;;;;;;;;;;5109115;28;20194;-89
2023/03/18 12:16:11;;;;;;;5.85;1.35;;;;;;;;;;5099167;28;20709;-87
2023/03/18 12:18:45;;;;;;;4.85;1.10;;;;;;;;;;5094598;28;20233;-89
2023/03/18 12:21:27;;;;;;;11.30;1.55;;;;;;;;;;5097386;28;20194;-89
2023/03/18 12:24:04;;;;;;;3.70;1.23;;;;;;;;;;5097262;28;20205;-86
2023/03/18 12:26:37;;;;;;;4.50;1.30;;;;;;;;;;5102504;28;20194;-90
2023/03/18 12:29:27;;;;;;;4.95;1.15;;;;;;;;;;5115879;28;20204;-90
2023/03/18 12:32:00;;;;;;;3.80;1.10;;;;;;;;;;5117192;28;20194;-90
2023/03/18 12:34:41;;;;;;;6.00;1.40;;;;;;;;;;5097489;28;20202;-89
2023/03/18 12:37:14;;;;;;;5.32;1.23;;;;;;;;;;5111840;28;20221;-90
2023/03/18 12:39:52;;;;;;;3.25;0.90;;;;;;;;;;5115750;28;20212;-91
2023/03/18 12:42:25;;;;;;;6.63;1.02;;;;;;;;;;5116086;28;20274;-90
2023/03/18 12:44:58;;;;;;;6.25;1.40;;;;;;;;;;5115783;28;20568;-89
2023/03/18 12:47:30;;;;;;;3.88;1.20;;;;;;;;;;5103889;28;20638;-91
2023/03/18 12:49:58;;;;;;;6.03;1.33;;;;;;;;;;5116540;28;20198;-91
2023/03/18 12:52:28;;;;;;;6.03;1.50;;;;;;;;;;5115015;28;20197;-91
2023/03/18 12:54:58;;;;;;;4.80;1.40;;;;;;;;;;5115131;28;20194;-90
2023/03/18 12:57:32;;;;;;;6.57;1.30;;;;;;;;;;5114414;28;20202;-89
2023/03/18 13:00:09;;;;;;;5.07;1.07;;;;;;;;;;5095921;28;20205;-87
2023/03/18 13:02:42;;;;;;;5.77;1.23;;;;;;;;;;5092264;28;20190;-85
2023/03/18 13:05:17;;;;;;;4.07;1.10;;;;;;;;;;5091188;28;20199;-86
2023/03/18 13:07:47;;;;;;;5.57;1.27;;;;;;;;;;5104595;28;20266;-87
2023/03/18 13:10:20;;;;;;;6.07;1.33;;;;;;;;;;5113206;28;20197;-88
2023/03/18 13:12:50;;;;;;;6.20;1.63;;;;;;;;;;5114091;28;20197;-86
2023/03/18 13:15:23;;;;;;;5.67;1.57;;;;;;;;;;5113985;28;20196;-85
2023/03/18 13:17:52;;;;;;;5.30;1.23;;;;;;;;;;5115663;28;20197;-89
2023/03/18 13:20:22;;;;;;;4.63;1.03;;;;;;;;;;5112444;28;20225;-88
2023/03/18 13:22:58;;;;;;;3.70;0.80;;;;;;;;;;5110207;28;20190;-88
2023/03/18 13:25:32;;;;;;;3.00;0.80;;;;;;;;;;5114083;28;20331;-91
2023/03/18 13:28:14;;;;;;;3.40;0.85;;;;;;;;;;5113825;28;20294;-88
2023/03/18 13:30:52;;;;;;;1.98;0.50;;;;;;;;;;5117447;27;20216;-89
2023/03/18 13:33:31;;;;;;;2.25;0.50;;;;;;;;;;5135169;27;20224;-89
2023/03/18 13:36:13;;;;;;;2.42;0.60;;;;;;;;;;5135008;27;20221;-88
2023/03/18 13:38:50;;;;;;;2.58;0.47;;;;;;;;;;5128670;27;20199;-87
2023/03/18 13:41:34;;;;;;;2.33;0.50;;;;;;;;;;5113166;28;20266;-92
2023/03/18 13:44:03;;;;;;;4.18;0.63;;;;;;;;;;5113180;28;20654;-88
2023/03/18 13:46:33;;;;;;;2.05;0.60;;;;;;;;;;5115195;27;20252;-86
2023/03/18 13:49:02;;;;;;;4.00;0.80;;;;;;;;;;5127229;27;20757;-88
2023/03/18 13:51:49;;;;;;;1.63;0.60;;;;;;;;;;5113558;28;20182;-88
2023/03/18 13:54:17;;;;;;;3.25;0.75;;;;;;;;;;5113110;28;20543;-87
2023/03/18 13:56:51;;;;;;;2.42;0.98;;;;;;;;;;5112660;28;20198;-85
2023/03/18 13:59:37;;;;;;;3.10;1.20;;;;;;;;;;5113084;28;20250;-88
2023/03/18 14:02:19;;;;;;;3.00;0.90;;;;;;;;;;5112680;28;20216;-88
2023/03/18 14:04:49;;;;;;;2.72;0.75;;;;;;;;;;5114203;28;20269;-89
2023/03/18 14:07:17;;;;;;;2.72;0.85;;;;;;;;;;5112760;28;20328;-89
2023/03/18 14:09:50;;;;;;;4.57;1.10;;;;;;;;;;5119816;28;20726;-92
2023/03/18 14:12:19;;;;;;;3.03;0.90;;;;;;;;;;5124430;27;20217;-91
2023/03/18 14:15:08;;;;;;;2.50;0.80;;;;;;;;;;5119897;28;20194;-90
2023/03/18 14:17:47;;;;;;;4.47;1.00;;;;;;;;;;5120970;28;20291;-91
2023/03/18 14:20:23;;;;;;;5.20;1.10;;;;;;;;;;5119891;27;20200;-89
2023/03/18 14:22:51;;;;;;;2.93;1.20;;;;;;;;;;5112218;28;20201;-86
2023/03/18 14:25:24;;;;;;;4.17;1.50;;;;;;;;;;5108989;28;20190;-87
2023/03/18 14:27:53;;;;;;;7.00;2.37;;;;;;;;;;5119301;27;20247;-87
2023/03/18 14:30:39;;;;;;;5.10;1.57;;;;;;;;;;5121226;27;20197;-86
2023/03/18 14:33:26;;;;;;;5.10;1.30;;;;;;;;;;5119268;27;20568;-87
2023/03/18 14:35:58;;;;;;;2.83;1.70;;;;;;;;;;5119386;27;20250;-87
2023/03/18 14:38:28;;;;;;;5.27;1.60;;;;;;;;;;5119603;27;20193;-85
2023/03/18 14:40:56;;;;;;;5.33;1.70;;;;;;;;;;5119384;27;20193;-85
2023/03/18 14:43:26;;;;;;;5.47;1.20;;;;;;;;;;5119539;27;20214;-84
2023/03/18 14:45:56;;;;;;;2.07;1.00;;;;;;;;;;5118693;27;20229;-86
2023/03/18 14:48:27;;;;;;;3.87;1.00;;;;;;;;;;5119796;27;20304;-86
2023/03/18 14:50:58;;;;;;;4.50;1.60;;;;;;;;;;5119440;27;20200;-87
2023/03/18 14:53:29;;;;;;;6.07;1.30;;;;;;;;;;5119402;27;20262;-86
2023/03/18 14:55:58;;;;;;;5.93;2.10;;;;;;;;;;5119411;27;20627;-87
2023/03/18 14:58:26;;;;;;;3.20;1.70;;;;;;;;;;5119218;27;20247;-87